createdAt,value
2023-04-04T00:00:02.084Z,101775.25
2023-04-04T00:02:32.093Z,101781.53
2023-04-04T00:05:00.019Z,101780.19
2023-04-04T00:07:29.281Z,101761.19
2023-04-04T00:09:57.057Z,101649.50
2023-04-04T00:12:28.371Z,101779.84
2023-04-04T00:14:57.465Z,101756.47
2023-04-04T00:17:25.860Z,101779.81
2023-04-04T00:19:53.679Z,101768.28
2023-04-04T00:22:21.543Z,101776.25
2023-04-04T00:24:51.597Z,101779.81
2023-04-04T00:27:19.263Z,101778.84
2023-04-04T00:29:47.102Z,101784.84
2023-04-04T00:32:15.010Z,101785.75
2023-04-04T00:34:43.023Z,101777.78
2023-04-04T00:37:13.076Z,101775.97
2023-04-04T00:39:41.798Z,101777.88
2023-04-04T00:42:10.989Z,101754.16
2023-04-04T00:44:38.878Z,101779.88
2023-04-04T00:47:06.930Z,101780.09
2023-04-04T00:49:34.872Z,101774.88
2023-04-04T00:52:03.155Z,101745.78
2023-04-04T00:54:31.534Z,101781.41
2023-04-04T00:56:59.742Z,101746.44
2023-04-04T00:59:30.123Z,101720.03
2023-04-04T01:01:58.375Z,101747.03
2023-04-04T01:04:26.365Z,101774.63
2023-04-04T01:06:54.419Z,101769.00
2023-04-04T01:11:51.751Z,101762.53
2023-04-04T01:14:19.852Z,101772.94
2023-04-04T01:16:50.539Z,101735.00
2023-04-04T01:19:34.506Z,101739.69
2023-04-04T01:22:07.744Z,101766.72
2023-04-04T01:24:37.122Z,101650.38
2023-04-04T01:27:07.780Z,101762.06
2023-04-04T01:29:41.938Z,101777.22
2023-04-04T01:32:16.751Z,101750.81
2023-04-04T01:34:52.888Z,101736.63
2023-04-04T01:37:29.461Z,101763.88
2023-04-04T01:40:06.374Z,101762.59
2023-04-04T01:42:37.995Z,101728.97
2023-04-04T01:45:09.099Z,101612.81
2023-04-04T01:47:41.657Z,101760.44
2023-04-04T01:50:13.575Z,101747.31
2023-04-04T01:52:41.390Z,101724.28
2023-04-04T01:55:10.745Z,101731.50
2023-04-04T01:57:40.451Z,101751.91
2023-04-04T02:00:10.994Z,101757.19
2023-04-04T02:02:44.686Z,101752.84
2023-04-04T02:05:13.418Z,101750.16
2023-04-04T02:07:41.825Z,101643.88
2023-04-04T02:10:21.554Z,101753.59
2023-04-04T02:12:53.902Z,101644.75
2023-04-04T02:15:23.971Z,101755.44
2023-04-04T02:17:52.439Z,101747.31
2023-04-04T02:20:20.607Z,101748.41
2023-04-04T02:22:53.723Z,101744.88
2023-04-04T02:25:22.609Z,101742.94
2023-04-04T02:27:52.279Z,101742.94
2023-04-04T02:30:24.368Z,101740.50
2023-04-04T02:32:53.004Z,101730.16
2023-04-04T02:35:22.194Z,101715.78
2023-04-04T02:37:51.300Z,101695.41
2023-04-04T02:40:29.128Z,101648.88
2023-04-04T02:42:58.473Z,101724.78
2023-04-04T02:45:26.859Z,101727.66
2023-04-04T02:48:03.900Z,101720.31
2023-04-04T02:50:40.511Z,101710.00
2023-04-04T02:53:10.260Z,101721.78
2023-04-04T02:55:39.158Z,101699.41
2023-04-04T02:58:08.428Z,101714.84
2023-04-04T03:00:36.491Z,101713.66
2023-04-04T03:03:05.358Z,101702.47
2023-04-04T03:05:38.216Z,101719.44
2023-04-04T03:08:06.362Z,101713.00
2023-04-04T03:10:34.297Z,101710.63
2023-04-04T03:13:02.187Z,101635.31
2023-04-04T03:15:34.578Z,101699.66
2023-04-04T03:18:03.310Z,101682.31
2023-04-04T03:20:33.174Z,101685.63
2023-04-04T03:23:01.069Z,101697.09
2023-04-04T03:25:28.960Z,101677.94
2023-04-04T03:27:56.792Z,101676.69
2023-04-04T03:30:27.206Z,101682.91
2023-04-04T03:32:57.329Z,101682.03
2023-04-04T03:35:25.529Z,101681.94
2023-04-04T03:37:54.737Z,101670.06
2023-04-04T03:40:22.643Z,101681.47
2023-04-04T03:42:51.466Z,101681.72
2023-04-04T03:45:21.116Z,101672.00
2023-04-04T03:47:49.161Z,101683.50
2023-04-04T03:50:18.452Z,101651.31
2023-04-04T03:52:52.570Z,101591.50
2023-04-04T03:55:20.420Z,101677.06
2023-04-04T03:57:48.289Z,101671.22
2023-04-04T04:00:17.677Z,101677.44
2023-04-04T04:02:46.466Z,101678.53
2023-04-04T04:05:14.597Z,101663.31
2023-04-04T04:07:45.952Z,101597.41
2023-04-04T04:10:15.064Z,101679.47
2023-04-04T04:12:42.860Z,101678.47
2023-04-04T04:15:11.601Z,101671.88
2023-04-04T04:17:41.981Z,101667.44
2023-04-04T04:20:12.362Z,101665.94
2023-04-04T04:22:49.468Z,101671.44
2023-04-04T04:25:17.776Z,101670.19
2023-04-04T04:27:57.435Z,101667.56
2023-04-04T04:30:26.739Z,101672.81
2023-04-04T04:32:54.706Z,101670.56
2023-04-04T04:35:27.858Z,101675.19
2023-04-04T04:37:58.194Z,101669.25
2023-04-04T04:40:26.145Z,101665.66
2023-04-04T04:43:05.957Z,101663.84
2023-04-04T04:45:33.814Z,101666.91
2023-04-04T04:48:08.269Z,101658.50
2023-04-04T04:50:44.354Z,101675.69
2023-04-04T04:53:15.176Z,101555.34
2023-04-04T04:55:43.803Z,101675.66
2023-04-04T04:58:12.202Z,101673.69
2023-04-04T05:00:45.457Z,101665.81
2023-04-04T05:03:13.593Z,101632.53
2023-04-04T05:05:48.297Z,101659.88
2023-04-04T05:08:18.857Z,101654.78
2023-04-04T05:11:09.603Z,101664.94
2023-04-04T05:13:38.488Z,101666.13
2023-04-04T05:16:06.824Z,101675.19
2023-04-04T05:18:36.838Z,101677.91
2023-04-04T05:21:09.562Z,101674.63
2023-04-04T05:23:38.939Z,101660.31
2023-04-04T05:26:08.133Z,101685.31
2023-04-04T05:28:40.583Z,101692.97
2023-04-04T05:31:08.511Z,101693.69
2023-04-04T05:33:37.699Z,101683.72
2023-04-04T05:36:13.070Z,101681.81
2023-04-04T05:38:56.963Z,101688.16
2023-04-04T05:41:29.750Z,101505.03
2023-04-04T05:44:03.961Z,101699.72
2023-04-04T05:46:31.879Z,101708.66
2023-04-04T05:48:59.700Z,101706.25
2023-04-04T05:51:28.215Z,101706.06
2023-04-04T05:54:10.659Z,101693.34
2023-04-04T05:56:39.892Z,101675.09
2023-04-04T05:59:14.587Z,101687.28
2023-04-04T06:01:52.805Z,101692.16
2023-04-04T06:04:20.976Z,101712.06
2023-04-04T06:06:49.285Z,101689.09
2023-04-04T06:09:18.478Z,101716.63
2023-04-04T06:11:46.349Z,101683.81
2023-04-04T06:14:15.346Z,101714.19
2023-04-04T06:16:44.928Z,101711.13
2023-04-04T06:19:12.962Z,101716.91
2023-04-04T06:21:40.832Z,101720.81
2023-04-04T06:24:09.926Z,101697.22
2023-04-04T06:26:39.261Z,101726.78
2023-04-04T06:29:07.432Z,101733.13
2023-04-04T06:31:38.188Z,101733.78
2023-04-04T06:34:10.936Z,101734.31
2023-04-04T06:37:10.898Z,101738.91
2023-04-04T06:39:47.703Z,101735.47
2023-04-04T06:42:23.955Z,101742.84
2023-04-04T06:44:53.477Z,101744.69
2023-04-04T06:47:22.488Z,101723.38
2023-04-04T06:49:50.340Z,101746.94
2023-04-04T06:52:18.690Z,101746.72
2023-04-04T06:54:46.859Z,101739.78
2023-04-04T06:57:15.829Z,101740.53
2023-04-04T06:59:45.352Z,101745.63
2023-04-04T07:02:13.377Z,101726.44
2023-04-04T07:04:41.891Z,101741.56
2023-04-04T07:07:09.672Z,101725.50
2023-04-04T07:09:37.610Z,101732.59
2023-04-04T07:12:05.936Z,101743.72
2023-04-04T07:14:33.707Z,101747.44
2023-04-04T07:17:10.702Z,101745.50
2023-04-04T07:19:45.307Z,101747.34
2023-04-04T07:22:13.319Z,101739.66
2023-04-04T07:24:42.169Z,101737.25
2023-04-04T07:27:10.007Z,101737.78
2023-04-04T07:29:37.868Z,101735.19
2023-04-04T07:32:07.373Z,101726.63
2023-04-04T07:34:35.280Z,101730.69
2023-04-04T07:37:03.094Z,101733.59
2023-04-04T07:39:31.305Z,101741.63
2023-04-04T07:41:59.041Z,101735.66
2023-04-04T07:44:26.832Z,101731.16
2023-04-04T07:47:06.267Z,101670.69
2023-04-04T07:49:38.983Z,101734.13
2023-04-04T07:52:07.197Z,101732.63
2023-04-04T07:54:34.934Z,101725.56
2023-04-04T07:57:05.480Z,101737.28
2023-04-04T07:59:33.349Z,101721.31
2023-04-04T08:02:01.245Z,101726.69
2023-04-04T08:04:29.192Z,101719.78
2023-04-04T08:06:58.459Z,101723.53
2023-04-04T08:09:28.420Z,101670.31
2023-04-04T08:11:56.292Z,101715.44
2023-04-04T08:14:24.166Z,101717.94
2023-04-04T08:16:52.571Z,101710.97
2023-04-04T08:19:20.522Z,101719.97
2023-04-04T08:21:48.244Z,101718.31
2023-04-04T08:24:17.394Z,101713.94
2023-04-04T08:26:49.064Z,101712.91
2023-04-04T08:29:22.641Z,101722.84
2023-04-04T08:31:50.436Z,101725.47
2023-04-04T08:34:18.283Z,101710.91
2023-04-04T08:36:46.149Z,101711.97
2023-04-04T08:39:14.277Z,101712.84
2023-04-04T08:41:46.408Z,101719.94
2023-04-04T08:44:18.355Z,101713.81
2023-04-04T08:46:46.840Z,101693.47
2023-04-04T08:49:17.385Z,101710.47
2023-04-04T08:51:47.746Z,101611.78
2023-04-04T08:54:18.134Z,101711.28
2023-04-04T08:56:47.447Z,101700.59
2023-04-04T08:59:15.529Z,101713.94
2023-04-04T09:01:43.524Z,101611.84
2023-04-04T09:04:11.983Z,101704.75
2023-04-04T09:06:41.001Z,101704.00
2023-04-04T09:09:09.354Z,101704.19
2023-04-04T09:11:37.866Z,101701.47
2023-04-04T09:14:07.160Z,101706.72
2023-04-04T09:16:34.981Z,101702.31
2023-04-04T09:19:02.776Z,101694.28
2023-04-04T09:21:34.785Z,101699.47
2023-04-04T09:24:03.566Z,101697.09
2023-04-04T09:26:47.909Z,101697.03
2023-04-04T09:29:18.990Z,101634.78
2023-04-04T09:31:47.112Z,101696.91
2023-04-04T09:34:16.456Z,101670.31
2023-04-04T09:36:45.573Z,101699.63
2023-04-04T09:39:16.524Z,101698.78
2023-04-04T09:41:46.474Z,101696.22
2023-04-04T09:44:15.013Z,101695.31
2023-04-04T09:46:44.437Z,101674.97
2023-04-04T09:49:13.511Z,101691.69
2023-04-04T09:51:42.612Z,101686.38
2023-04-04T09:54:18.792Z,101690.06
2023-04-04T09:56:54.514Z,101684.56
2023-04-04T09:59:22.330Z,101672.00
2023-04-04T10:01:53.531Z,101680.22
2023-04-04T10:04:21.737Z,101683.78
2023-04-04T10:06:49.820Z,101674.88
2023-04-04T10:09:17.695Z,101661.66
2023-04-04T10:11:45.527Z,101675.84
2023-04-04T10:14:13.537Z,101677.63
2023-04-04T10:16:46.525Z,101666.13
2023-04-04T10:19:18.997Z,101663.41
2023-04-04T10:21:47.828Z,101675.88
2023-04-04T10:24:15.776Z,101668.78
2023-04-04T10:26:43.562Z,101666.13
2023-04-04T10:29:12.835Z,101674.09
2023-04-04T10:31:44.731Z,101667.00
2023-04-04T10:34:23.009Z,101668.69
2023-04-04T10:36:52.532Z,101660.78
2023-04-04T10:39:26.050Z,101644.81
2023-04-04T10:41:56.568Z,101661.69
2023-04-04T10:44:29.946Z,101654.59
2023-04-04T10:47:00.613Z,101631.50
2023-04-04T10:49:31.735Z,101634.06
2023-04-04T10:51:59.799Z,101643.78
2023-04-04T10:54:29.321Z,101626.97
2023-04-04T10:57:01.458Z,101630.63
2023-04-04T10:59:29.516Z,101633.25
2023-04-04T11:01:59.091Z,101627.06
2023-04-04T11:04:33.020Z,101625.19
2023-04-04T11:07:17.865Z,101618.88
2023-04-04T11:09:50.072Z,101609.03
2023-04-04T11:12:23.377Z,101572.88
2023-04-04T11:14:58.996Z,101611.91
2023-04-04T11:17:56.176Z,101602.06
2023-04-04T11:20:29.818Z,101602.88
2023-04-04T11:23:08.801Z,101608.25
2023-04-04T11:25:39.804Z,101579.97
2023-04-04T11:28:09.887Z,101599.41
2023-04-04T11:30:44.957Z,101597.59
2023-04-04T11:33:15.295Z,101560.34
2023-04-04T11:35:51.318Z,101547.22
2023-04-04T11:38:21.681Z,101552.50
2023-04-04T11:40:56.503Z,101577.25
2023-04-04T11:43:24.975Z,101568.38
2023-04-04T11:45:52.883Z,101581.81
2023-04-04T11:48:21.778Z,101577.31
2023-04-04T11:50:51.359Z,101568.28
2023-04-04T11:53:19.400Z,101571.00
2023-04-04T11:55:50.391Z,101568.44
2023-04-04T11:58:19.377Z,101565.53
2023-04-04T12:00:47.762Z,101549.66
2023-04-04T12:03:18.468Z,101519.44
2023-04-04T12:05:47.670Z,101535.31
2023-04-04T12:08:18.010Z,101544.94
2023-04-04T12:10:45.766Z,101535.00
2023-04-04T12:13:14.108Z,101544.41
2023-04-04T12:15:44.052Z,101535.47
2023-04-04T12:18:21.650Z,101535.56
2023-04-04T12:20:49.604Z,101540.66
2023-04-04T12:23:19.690Z,101532.44
2023-04-04T12:25:53.554Z,101536.09
2023-04-04T12:28:22.245Z,101534.28
2023-04-04T12:30:51.355Z,101530.81
2023-04-04T12:33:19.266Z,101535.44
2023-04-04T12:35:52.968Z,101533.63
2023-04-04T12:38:22.214Z,101526.31
2023-04-04T12:40:52.509Z,101488.97
2023-04-04T12:43:20.881Z,101520.88
2023-04-04T12:45:51.297Z,101497.09
2023-04-04T12:48:19.762Z,101514.75
2023-04-04T12:50:55.747Z,101506.00
2023-04-04T12:56:15.522Z,101500.41
2023-04-04T12:58:47.647Z,101494.94
2023-04-04T13:01:16.926Z,101500.25
2023-04-04T13:03:45.231Z,101489.75
2023-04-04T13:06:14.207Z,101480.25
2023-04-04T13:08:52.732Z,101474.81
2023-04-04T13:11:21.703Z,101487.03
2023-04-04T13:13:49.868Z,101462.19
2023-04-04T13:16:31.731Z,101483.00
2023-04-04T13:19:00.088Z,101458.03
2023-04-04T13:21:28.246Z,101476.44
2023-04-04T13:23:57.886Z,101431.16
2023-04-04T13:26:26.138Z,101466.56
2023-04-04T13:28:54.009Z,101459.13
2023-04-04T13:31:22.190Z,101459.34
2023-04-04T13:33:50.104Z,101437.44
2023-04-04T13:36:18.041Z,101448.59
2023-04-04T13:38:45.799Z,101455.28
2023-04-04T13:41:14.970Z,101440.97
2023-04-04T13:43:42.810Z,101418.72
2023-04-04T13:46:10.615Z,101438.88
2023-04-04T13:48:38.540Z,101423.78
2023-04-04T13:51:06.547Z,101436.63
2023-04-04T13:53:34.465Z,101423.72
2023-04-04T13:56:17.685Z,101433.19
2023-04-04T13:58:48.152Z,101423.00
2023-04-04T14:01:16.039Z,101420.44
2023-04-04T14:03:44.098Z,101408.47
2023-04-04T14:06:12.363Z,101410.53
2023-04-04T14:08:40.448Z,101372.22
2023-04-04T14:11:08.271Z,101391.78
2023-04-04T14:13:36.334Z,101402.31
2023-04-04T14:16:06.197Z,101397.50
2023-04-04T14:18:34.523Z,101395.38
2023-04-04T14:21:03.023Z,101397.97
2023-04-04T14:23:31.515Z,101400.47
2023-04-04T14:25:59.475Z,101397.59
2023-04-04T14:28:28.118Z,101391.91
2023-04-04T14:30:56.203Z,101400.53
2023-04-04T14:33:25.460Z,101412.06
2023-04-04T14:35:53.221Z,101397.44
2023-04-04T14:38:20.993Z,101399.50
2023-04-04T14:40:49.308Z,101394.75
2023-04-04T14:43:17.074Z,101385.50
2023-04-04T14:45:44.967Z,101316.31
2023-04-04T14:48:12.921Z,101305.91
2023-04-04T14:50:42.823Z,101337.91
2023-04-04T14:53:11.803Z,101375.06
2023-04-04T14:55:39.748Z,101377.69
2023-04-04T14:58:08.234Z,101365.31
2023-04-04T15:00:36.289Z,101370.59
2023-04-04T15:03:07.164Z,101374.16
2023-04-04T15:05:35.233Z,101348.69
2023-04-04T15:08:04.752Z,101352.72
2023-04-04T15:10:32.549Z,101375.69
2023-04-04T15:13:00.596Z,101235.69
2023-04-04T15:15:29.296Z,101363.31
2023-04-04T15:17:57.250Z,101349.59
2023-04-04T15:20:25.143Z,101367.16
2023-04-04T15:22:54.475Z,101372.81
2023-04-04T15:25:23.951Z,101317.44
2023-04-04T15:27:51.898Z,101341.13
2023-04-04T15:30:19.775Z,101366.50
2023-04-04T15:32:47.744Z,101320.00
2023-04-04T15:35:19.799Z,101366.41
2023-04-04T15:37:49.099Z,101324.88
2023-04-04T15:40:17.670Z,101362.78
2023-04-04T15:42:47.195Z,101331.56
2023-04-04T15:45:16.572Z,101332.63
2023-04-04T15:47:45.063Z,101320.16
2023-04-04T15:50:13.269Z,101353.13
2023-04-04T15:52:41.643Z,101358.94
2023-04-04T15:55:13.174Z,101365.00
2023-04-04T15:57:42.727Z,101357.88
2023-04-04T16:00:15.075Z,101357.03
2023-04-04T16:02:43.098Z,101351.94
2023-04-04T16:05:11.347Z,101358.06
2023-04-04T16:07:39.214Z,101357.44
2023-04-04T16:10:08.097Z,101348.59
2023-04-04T16:12:36.039Z,101325.19
2023-04-04T16:15:05.350Z,101317.97
2023-04-04T16:17:34.671Z,101350.81
2023-04-04T16:20:02.572Z,101325.72
2023-04-04T16:22:30.349Z,101338.91
2023-04-04T16:24:58.125Z,101347.41
2023-04-04T16:27:26.029Z,101340.78
2023-04-04T16:29:54.053Z,101319.25
2023-04-04T16:32:21.824Z,101335.13
2023-04-04T16:34:51.178Z,101336.44
2023-04-04T16:37:19.037Z,101305.72
2023-04-04T16:39:48.134Z,101335.25
2023-04-04T16:42:19.496Z,101328.06
2023-04-04T16:44:47.855Z,101244.00
2023-04-04T16:47:15.654Z,101328.06
2023-04-04T16:49:43.545Z,101320.06
2023-04-04T16:52:14.599Z,101307.63
2023-04-04T16:54:43.259Z,101322.59
2023-04-04T16:57:11.251Z,101324.44
2023-04-04T16:59:39.116Z,101207.78
2023-04-04T17:02:08.902Z,101320.09
2023-04-04T17:04:39.459Z,101319.41
2023-04-04T17:07:09.118Z,101311.47
2023-04-04T17:09:38.313Z,101320.28
2023-04-04T17:12:06.808Z,101320.25
2023-04-04T17:14:35.560Z,101203.56
2023-04-04T17:17:05.164Z,101277.81
2023-04-04T17:19:34.991Z,101259.34
2023-04-04T17:22:03.390Z,101215.03
2023-04-04T17:24:31.250Z,101260.16
2023-04-04T17:27:02.387Z,101326.66
2023-04-04T17:29:30.674Z,101288.47
2023-04-04T17:31:59.692Z,101315.03
2023-04-04T17:34:27.858Z,101316.81
2023-04-04T17:36:56.600Z,101286.91
2023-04-04T17:39:24.567Z,101316.00
2023-04-04T17:41:52.828Z,101295.78
2023-04-04T17:44:22.860Z,101309.16
2023-04-04T17:46:50.734Z,101257.06
2023-04-04T17:49:20.566Z,101311.91
2023-04-04T17:51:49.257Z,101287.25
2023-04-04T17:54:17.412Z,101316.47
2023-04-04T17:56:45.524Z,101313.69
2023-04-04T17:59:13.897Z,101311.88
2023-04-04T18:01:43.227Z,101309.25
2023-04-04T18:04:11.491Z,101310.22
2023-04-04T18:06:41.163Z,101313.84
2023-04-04T18:09:10.162Z,101299.75
2023-04-04T18:11:38.407Z,101304.06
2023-04-04T18:14:06.303Z,101317.34
2023-04-04T18:16:39.533Z,101300.59
2023-04-04T18:19:10.920Z,101312.97
2023-04-04T18:21:39.208Z,101320.91
2023-04-04T18:24:11.102Z,101247.44
2023-04-04T18:26:39.267Z,101320.09
2023-04-04T18:29:07.427Z,101317.44
2023-04-04T18:31:35.411Z,101318.31
2023-04-04T18:34:03.263Z,101319.16
2023-04-04T18:36:32.564Z,101317.44
2023-04-04T18:39:01.118Z,101318.31
2023-04-04T18:41:29.094Z,101317.47
2023-04-04T18:43:57.031Z,101325.47
2023-04-04T18:46:25.058Z,101322.81
2023-04-04T18:48:52.894Z,101320.16
2023-04-04T18:51:22.311Z,101326.38
2023-04-04T18:53:53.004Z,101321.06
2023-04-04T18:56:21.603Z,101313.06
2023-04-04T18:58:49.715Z,101326.41
2023-04-04T19:01:17.740Z,101322.84
2023-04-04T19:03:48.110Z,101329.06
2023-04-04T19:06:16.611Z,101316.63
2023-04-04T19:08:45.310Z,101212.22
2023-04-04T19:11:15.850Z,101326.38
2023-04-04T19:13:43.690Z,101333.53
2023-04-04T19:16:11.617Z,101327.28
2023-04-04T19:18:39.444Z,101330.81
2023-04-04T19:21:08.842Z,101280.44
2023-04-04T19:23:38.053Z,101336.19
2023-04-04T19:26:06.609Z,101315.84
2023-04-04T19:28:36.448Z,101326.44
2023-04-04T19:31:10.787Z,101326.44
2023-04-04T19:33:39.128Z,101331.78
2023-04-04T19:36:09.588Z,101252.13
2023-04-04T19:38:38.784Z,101315.00
2023-04-04T19:41:12.415Z,101320.28
2023-04-04T19:43:45.038Z,101317.66
2023-04-04T19:46:14.372Z,101305.25
2023-04-04T19:48:48.833Z,101321.19
2023-04-04T19:51:39.122Z,101322.09
2023-04-04T19:54:11.870Z,101306.16
2023-04-04T19:56:39.909Z,101323.84
2023-04-04T19:59:10.933Z,101324.75
2023-04-04T20:01:44.775Z,101327.44
2023-04-04T20:04:15.544Z,101315.00
2023-04-04T20:06:43.540Z,101287.59
2023-04-04T20:09:26.348Z,101284.94
2023-04-04T20:11:54.318Z,101319.44
2023-04-04T20:14:23.730Z,101321.25
2023-04-04T20:16:52.558Z,101265.47
2023-04-04T20:19:21.824Z,101312.38
2023-04-04T20:21:50.020Z,101324.78
2023-04-04T20:24:18.767Z,101324.78
2023-04-04T20:26:55.521Z,101324.78
2023-04-04T20:29:27.142Z,101314.16
2023-04-04T20:31:57.249Z,101321.22
2023-04-04T20:34:38.708Z,101299.97
2023-04-04T20:37:10.145Z,101303.50
2023-04-04T20:39:45.118Z,101319.44
2023-04-04T20:42:20.054Z,101322.97
2023-04-04T20:44:49.285Z,101319.44
2023-04-04T20:47:44.945Z,101317.63
2023-04-04T20:50:36.494Z,101320.28
2023-04-04T20:53:05.864Z,101334.47
2023-04-04T20:55:36.137Z,101310.53
2023-04-04T20:58:08.692Z,101320.31
2023-04-04T21:00:41.698Z,101307.00
2023-04-04T21:03:11.689Z,101253.84
2023-04-04T21:05:41.139Z,101321.13
2023-04-04T21:08:37.055Z,101326.44
2023-04-04T21:11:06.797Z,101329.94
2023-04-04T21:13:37.153Z,101319.28
2023-04-04T21:16:09.847Z,101298.84
2023-04-04T21:18:39.141Z,101312.13
2023-04-04T21:21:12.977Z,101313.84
2023-04-04T21:23:46.042Z,101317.41
2023-04-04T21:26:31.833Z,101323.63
2023-04-04T21:29:00.948Z,101322.69
2023-04-04T21:31:36.409Z,101304.88
2023-04-04T21:34:12.684Z,101279.19
2023-04-04T21:36:41.416Z,101305.59
2023-04-04T21:39:12.947Z,101309.19
2023-04-04T21:41:41.300Z,101308.25
2023-04-04T21:44:10.714Z,101249.72
2023-04-04T21:46:41.996Z,101296.59
2023-04-04T21:49:10.552Z,101304.53
2023-04-04T21:51:38.763Z,101268.16
2023-04-04T21:54:06.733Z,101300.94
2023-04-04T21:56:34.615Z,101294.72
2023-04-04T21:59:04.004Z,101288.41
2023-04-04T22:01:32.949Z,101288.31
2023-04-04T22:04:02.505Z,101290.00
2023-04-04T22:06:31.119Z,101292.72
2023-04-04T22:09:01.681Z,101295.53
2023-04-04T22:11:30.363Z,101298.06
2023-04-04T22:14:04.678Z,101297.94
2023-04-04T22:16:36.945Z,101288.94
2023-04-04T22:19:07.348Z,101300.53
2023-04-04T22:21:36.472Z,101296.94
2023-04-04T22:24:06.242Z,101305.69
2023-04-04T22:26:34.664Z,101289.78
2023-04-04T22:29:05.163Z,101295.03
2023-04-04T22:31:34.957Z,101069.00
2023-04-04T22:34:03.954Z,101299.47
2023-04-04T22:36:35.226Z,101299.44
2023-04-04T22:39:03.052Z,101301.09
2023-04-04T22:41:30.907Z,101295.75
2023-04-04T22:43:59.409Z,101262.84
2023-04-04T22:46:28.854Z,101292.91
2023-04-04T22:49:04.845Z,101178.50
2023-04-04T22:51:42.856Z,101285.06
2023-04-04T22:54:11.149Z,101285.00
2023-04-04T22:56:38.958Z,101242.31
2023-04-04T22:59:06.796Z,101283.84
2023-04-04T23:01:34.803Z,101283.75
2023-04-04T23:04:02.757Z,101280.28
2023-04-04T23:06:31.419Z,101282.09
2023-04-04T23:09:01.941Z,101280.34
2023-04-04T23:11:30.645Z,101281.22
2023-04-04T23:13:58.619Z,101240.44
2023-04-04T23:16:26.721Z,101257.16
2023-04-04T23:18:54.606Z,101270.41
2023-04-04T23:21:22.772Z,101280.13
2023-04-04T23:23:50.818Z,101283.66
2023-04-04T23:26:20.098Z,101263.19
2023-04-04T23:28:48.085Z,101275.53
2023-04-04T23:31:16.861Z,101256.91
2023-04-04T23:33:44.891Z,101279.13
2023-04-04T23:36:12.936Z,101251.53
2023-04-04T23:38:40.785Z,101256.09
2023-04-04T23:41:09.516Z,101259.63
2023-04-04T23:43:39.010Z,101216.13
2023-04-04T23:46:07.376Z,101256.00
2023-04-04T23:48:35.462Z,101256.63
2023-04-04T23:51:04.276Z,101244.31
2023-04-04T23:53:32.193Z,101254.50
2023-04-04T23:56:00.050Z,101234.25
2023-04-04T23:58:27.920Z,101210.16
